Port Columbus International Airport
KCMH : now visible

Airfield :











YOU CAN JOIN US ON...

 
LOGIN :

Register | Disclaimer

   EN    FR    IT 

 









Legend :    VFR   Marginal VFR   IFR   Intensive IFR   Very Intensive IFR
Visi :
Ceiling :
>= 8 km
>= 3000ft
5 to 8 km
1000 to 3000 ft
1500m to 5 km
500 to 1000 ft
800 to 1500m
200 to 500 ft
< 800m
< 200 ft
Symbols :   Thunderstorms  Fog  Heavy snow  Heavy precipitations  Wind > 20 kt






- Airport Elevation : 815 ft
- IATA code : CMH


KCMH - Port Columbus International

CURRENT METAR :
  • 080651Z 12004KT 10SM BKN250 M01/M08 A3028 RMK AO2 SLP260 T10061078

EXPIRED METARs :
  • 080551Z 13004KT 10SM BKN250 M01/M08 A3030 RMK AO2 SLP267 T10061078 10017 21011 58010
  • 080451Z 12004KT 10SM SCT250 M01/M08 A3032 RMK AO2 SLP274 T10061078 400501067

TAF KCMH
Valid from the 08 at 06:00 until the 09 at 06:00 UTC


080541Z 0806/0906 13005KT P6SM BKN250
FM081500 18012KT P6SM BKN050
FM090000 17008KT P6SM VCSH OVC035



MET'MAP, your aeronautical weather chart ! - Copyright ORBIFLY December 2007 - Disclaimer

ORBIFLY MET'MAP TEAM :

Programming & Development : Alexandra Zaïnal
Concept & original design : Baudouin d'Aumeries
Assistance for programming : Marc-Olivier Méhu
Technical & hardware support : Manuel Goepfert

Contact : metmap@orbifly.com




SOURCES & CREDITS :

   NOAA       Earth
Advisory